sensor_id;sensor_type;location;lat;lon;timestamp;P1;durP1;ratioP1;P2;durP2;ratioP2
62006;SDS011;47963;53.008;6.754;2022-07-18T00:01:30;11.43;;;6.50;;
62006;SDS011;47963;53.008;6.754;2022-07-18T00:03:56;11.23;;;7.25;;
62006;SDS011;47963;53.008;6.754;2022-07-18T00:06:22;11.73;;;7.55;;
62006;SDS011;47963;53.008;6.754;2022-07-18T00:08:48;12.40;;;7.38;;
62006;SDS011;47963;53.008;6.754;2022-07-18T00:11:13;11.25;;;6.97;;
62006;SDS011;47963;53.008;6.754;2022-07-18T00:13:39;11.68;;;7.10;;
62006;SDS011;47963;53.008;6.754;2022-07-18T00:16:05;10.00;;;7.03;;
62006;SDS011;47963;53.008;6.754;2022-07-18T00:18:31;12.98;;;7.78;;
62006;SDS011;47963;53.008;6.754;2022-07-18T00:20:56;10.65;;;7.10;;
62006;SDS011;47963;53.008;6.754;2022-07-18T00:23:22;13.63;;;8.25;;
62006;SDS011;47963;53.008;6.754;2022-07-18T00:25:48;11.70;;;7.45;;
62006;SDS011;47963;53.008;6.754;2022-07-18T00:28:13;11.43;;;7.60;;
62006;SDS011;47963;53.008;6.754;2022-07-18T00:30:40;11.57;;;7.70;;
62006;SDS011;47963;53.008;6.754;2022-07-18T00:33:05;11.95;;;7.80;;
62006;SDS011;47963;53.008;6.754;2022-07-18T00:35:31;11.88;;;7.55;;
62006;SDS011;47963;53.008;6.754;2022-07-18T00:37:57;12.13;;;7.65;;
62006;SDS011;47963;53.008;6.754;2022-07-18T00:40:23;12.82;;;7.82;;
62006;SDS011;47963;53.008;6.754;2022-07-18T00:42:50;14.70;;;8.30;;
62006;SDS011;47963;53.008;6.754;2022-07-18T00:45:15;12.63;;;7.88;;
62006;SDS011;47963;53.008;6.754;2022-07-18T00:47:41;13.68;;;8.05;;
62006;SDS011;47963;53.008;6.754;2022-07-18T00:50:07;11.93;;;7.55;;
62006;SDS011;47963;53.008;6.754;2022-07-18T00:52:34;13.30;;;7.88;;
62006;SDS011;47963;53.008;6.754;2022-07-18T00:55:00;12.32;;;7.93;;
62006;SDS011;47963;53.008;6.754;2022-07-18T00:57:26;12.88;;;7.90;;
62006;SDS011;47963;53.008;6.754;2022-07-18T00:59:52;12.65;;;7.63;;
62006;SDS011;47963;53.008;6.754;2022-07-18T01:02:37;13.13;;;7.47;;
62006;SDS011;47963;53.008;6.754;2022-07-18T01:05:05;13.10;;;8.48;;
62006;SDS011;47963;53.008;6.754;2022-07-18T01:07:33;12.05;;;8.15;;
62006;SDS011;47963;53.008;6.754;2022-07-18T01:10:00;11.57;;;7.68;;
62006;SDS011;47963;53.008;6.754;2022-07-18T01:12:26;12.00;;;8.07;;
62006;SDS011;47963;53.008;6.754;2022-07-18T01:14:52;11.52;;;7.40;;
62006;SDS011;47963;53.008;6.754;2022-07-18T01:17:18;12.65;;;7.97;;
62006;SDS011;47963;53.008;6.754;2022-07-18T01:19:45;12.98;;;7.97;;
62006;SDS011;47963;53.008;6.754;2022-07-18T01:22:12;12.27;;;8.40;;
62006;SDS011;47963;53.008;6.754;2022-07-18T01:24:39;12.13;;;7.90;;
62006;SDS011;47963;53.008;6.754;2022-07-18T01:27:05;13.07;;;8.32;;
62006;SDS011;47963;53.008;6.754;2022-07-18T01:29:32;12.40;;;8.30;;
62006;SDS011;47963;53.008;6.754;2022-07-18T01:32:04;13.20;;;7.93;;
62006;SDS011;47963;53.008;6.754;2022-07-18T01:34:31;11.80;;;7.97;;
62006;SDS011;47963;53.008;6.754;2022-07-18T01:36:57;13.00;;;8.80;;
62006;SDS011;47963;53.008;6.754;2022-07-18T01:39:23;11.43;;;7.45;;
62006;SDS011;47963;53.008;6.754;2022-07-18T01:42:02;12.13;;;7.93;;
62006;SDS011;47963;53.008;6.754;2022-07-18T01:44:30;11.70;;;7.90;;
62006;SDS011;47963;53.008;6.754;2022-07-18T01:46:57;12.57;;;7.93;;
62006;SDS011;47963;53.008;6.754;2022-07-18T01:49:23;13.18;;;8.45;;
62006;SDS011;47963;53.008;6.754;2022-07-18T01:51:50;12.75;;;8.88;;
62006;SDS011;47963;53.008;6.754;2022-07-18T01:54:21;14.15;;;8.10;;
62006;SDS011;47963;53.008;6.754;2022-07-18T01:56:47;12.90;;;7.95;;
62006;SDS011;47963;53.008;6.754;2022-07-18T01:59:13;11.80;;;7.90;;
62006;SDS011;47963;53.008;6.754;2022-07-18T02:01:39;13.60;;;8.15;;
62006;SDS011;47963;53.008;6.754;2022-07-18T02:04:04;12.15;;;7.95;;
62006;SDS011;47963;53.008;6.754;2022-07-18T02:06:30;12.63;;;8.48;;
62006;SDS011;47963;53.008;6.754;2022-07-18T02:08:56;12.95;;;8.65;;
62006;SDS011;47963;53.008;6.754;2022-07-18T02:11:22;11.70;;;7.95;;
62006;SDS011;47963;53.008;6.754;2022-07-18T02:13:47;12.93;;;8.60;;
62006;SDS011;47963;53.008;6.754;2022-07-18T02:16:13;13.85;;;8.65;;
62006;SDS011;47963;53.008;6.754;2022-07-18T02:18:39;12.55;;;8.20;;
62006;SDS011;47963;53.008;6.754;2022-07-18T02:21:05;12.02;;;8.05;;
62006;SDS011;47963;53.008;6.754;2022-07-18T02:23:30;13.07;;;8.50;;
62006;SDS011;47963;53.008;6.754;2022-07-18T02:25:56;12.30;;;7.88;;
62006;SDS011;47963;53.008;6.754;2022-07-18T02:28:22;15.15;;;8.52;;
62006;SDS011;47963;53.008;6.754;2022-07-18T02:30:48;13.82;;;8.70;;
62006;SDS011;47963;53.008;6.754;2022-07-18T02:33:14;12.85;;;8.68;;
62006;SDS011;47963;53.008;6.754;2022-07-18T02:35:40;13.10;;;8.65;;
62006;SDS011;47963;53.008;6.754;2022-07-18T02:38:07;15.15;;;8.60;;
62006;SDS011;47963;53.008;6.754;2022-07-18T02:40:33;13.93;;;8.40;;
62006;SDS011;47963;53.008;6.754;2022-07-18T02:43:02;12.75;;;8.70;;
62006;SDS011;47963;53.008;6.754;2022-07-18T02:45:28;13.68;;;8.50;;
62006;SDS011;47963;53.008;6.754;2022-07-18T02:47:54;13.27;;;8.32;;
62006;SDS011;47963;53.008;6.754;2022-07-18T02:50:20;12.98;;;8.35;;
62006;SDS011;47963;53.008;6.754;2022-07-18T02:52:46;11.90;;;8.43;;
62006;SDS011;47963;53.008;6.754;2022-07-18T02:55:13;13.45;;;8.52;;
62006;SDS011;47963;53.008;6.754;2022-07-18T02:57:39;14.05;;;8.48;;
62006;SDS011;47963;53.008;6.754;2022-07-18T03:00:07;14.63;;;8.55;;
62006;SDS011;47963;53.008;6.754;2022-07-18T03:02:35;13.98;;;8.68;;
62006;SDS011;47963;53.008;6.754;2022-07-18T03:05:01;12.80;;;8.35;;
62006;SDS011;47963;53.008;6.754;2022-07-18T03:07:27;12.90;;;8.32;;
62006;SDS011;47963;53.008;6.754;2022-07-18T03:09:53;12.85;;;8.50;;
62006;SDS011;47963;53.008;6.754;2022-07-18T03:12:19;14.73;;;8.60;;
62006;SDS011;47963;53.008;6.754;2022-07-18T03:14:44;13.20;;;8.70;;
62006;SDS011;47963;53.008;6.754;2022-07-18T03:17:10;13.80;;;8.60;;
62006;SDS011;47963;53.008;6.754;2022-07-18T03:19:36;16.38;;;9.52;;
62006;SDS011;47963;53.008;6.754;2022-07-18T03:22:02;12.90;;;8.45;;
62006;SDS011;47963;53.008;6.754;2022-07-18T03:24:29;13.35;;;9.30;;
62006;SDS011;47963;53.008;6.754;2022-07-18T03:26:55;14.75;;;8.88;;
62006;SDS011;47963;53.008;6.754;2022-07-18T03:29:21;14.75;;;9.18;;
62006;SDS011;47963;53.008;6.754;2022-07-18T03:31:46;13.02;;;8.52;;
62006;SDS011;47963;53.008;6.754;2022-07-18T03:34:12;14.15;;;8.50;;
62006;SDS011;47963;53.008;6.754;2022-07-18T03:36:39;13.38;;;8.70;;
62006;SDS011;47963;53.008;6.754;2022-07-18T03:39:07;13.23;;;8.50;;
62006;SDS011;47963;53.008;6.754;2022-07-18T03:41:34;13.65;;;8.63;;
62006;SDS011;47963;53.008;6.754;2022-07-18T03:44:00;14.82;;;9.23;;
62006;SDS011;47963;53.008;6.754;2022-07-18T03:46:26;13.88;;;9.10;;
62006;SDS011;47963;53.008;6.754;2022-07-18T03:48:52;13.50;;;8.65;;
62006;SDS011;47963;53.008;6.754;2022-07-18T03:51:17;13.77;;;8.75;;
62006;SDS011;47963;53.008;6.754;2022-07-18T03:53:43;14.93;;;8.68;;
62006;SDS011;47963;53.008;6.754;2022-07-18T03:56:09;15.43;;;8.80;;
62006;SDS011;47963;53.008;6.754;2022-07-18T03:58:34;13.95;;;8.70;;
62006;SDS011;47963;53.008;6.754;2022-07-18T04:01:00;15.18;;;8.70;;
62006;SDS011;47963;53.008;6.754;2022-07-18T04:03:26;13.82;;;8.82;;
62006;SDS011;47963;53.008;6.754;2022-07-18T04:05:52;12.57;;;8.75;;
62006;SDS011;47963;53.008;6.754;2022-07-18T04:08:17;14.35;;;8.55;;
62006;SDS011;47963;53.008;6.754;2022-07-18T04:10:43;15.30;;;8.90;;
62006;SDS011;47963;53.008;6.754;2022-07-18T04:13:09;16.63;;;8.63;;
62006;SDS011;47963;53.008;6.754;2022-07-18T04:15:36;15.30;;;8.55;;
62006;SDS011;47963;53.008;6.754;2022-07-18T04:18:02;14.13;;;8.60;;
62006;SDS011;47963;53.008;6.754;2022-07-18T04:20:29;14.82;;;8.82;;
62006;SDS011;47963;53.008;6.754;2022-07-18T04:22:57;12.82;;;8.48;;
62006;SDS011;47963;53.008;6.754;2022-07-18T04:25:28;13.93;;;8.20;;
62006;SDS011;47963;53.008;6.754;2022-07-18T04:27:58;13.20;;;8.38;;
62006;SDS011;47963;53.008;6.754;2022-07-18T04:30:24;13.93;;;8.18;;
62006;SDS011;47963;53.008;6.754;2022-07-18T04:32:51;15.68;;;8.02;;
62006;SDS011;47963;53.008;6.754;2022-07-18T04:35:17;14.18;;;8.00;;
62006;SDS011;47963;53.008;6.754;2022-07-18T04:37:43;13.35;;;7.30;;
62006;SDS011;47963;53.008;6.754;2022-07-18T04:40:09;15.45;;;7.57;;
62006;SDS011;47963;53.008;6.754;2022-07-18T04:42:35;12.20;;;7.72;;
62006;SDS011;47963;53.008;6.754;2022-07-18T04:45:02;11.55;;;7.13;;
62006;SDS011;47963;53.008;6.754;2022-07-18T04:47:30;11.05;;;6.90;;
62006;SDS011;47963;53.008;6.754;2022-07-18T04:49:55;13.52;;;6.75;;
62006;SDS011;47963;53.008;6.754;2022-07-18T04:52:21;12.70;;;6.93;;
62006;SDS011;47963;53.008;6.754;2022-07-18T04:54:47;13.27;;;6.95;;
62006;SDS011;47963;53.008;6.754;2022-07-18T04:57:13;13.02;;;6.43;;
62006;SDS011;47963;53.008;6.754;2022-07-18T04:59:42;12.70;;;6.57;;
62006;SDS011;47963;53.008;6.754;2022-07-18T05:02:10;11.18;;;6.63;;
62006;SDS011;47963;53.008;6.754;2022-07-18T05:04:36;11.85;;;6.78;;
62006;SDS011;47963;53.008;6.754;2022-07-18T05:07:03;11.98;;;6.20;;
62006;SDS011;47963;53.008;6.754;2022-07-18T05:09:28;11.20;;;5.88;;
62006;SDS011;47963;53.008;6.754;2022-07-18T05:11:54;11.50;;;5.82;;
62006;SDS011;47963;53.008;6.754;2022-07-18T05:14:20;11.18;;;6.10;;
62006;SDS011;47963;53.008;6.754;2022-07-18T05:16:46;11.73;;;6.35;;
62006;SDS011;47963;53.008;6.754;2022-07-18T05:19:12;11.95;;;5.75;;
62006;SDS011;47963;53.008;6.754;2022-07-18T05:21:40;14.20;;;6.88;;
62006;SDS011;47963;53.008;6.754;2022-07-18T05:24:06;10.75;;;5.43;;
62006;SDS011;47963;53.008;6.754;2022-07-18T05:26:32;12.55;;;6.32;;
62006;SDS011;47963;53.008;6.754;2022-07-18T05:28:58;10.50;;;5.60;;
62006;SDS011;47963;53.008;6.754;2022-07-18T05:31:23;9.80;;;5.00;;
62006;SDS011;47963;53.008;6.754;2022-07-18T05:33:49;10.75;;;5.30;;
62006;SDS011;47963;53.008;6.754;2022-07-18T05:36:15;12.48;;;5.63;;
62006;SDS011;47963;53.008;6.754;2022-07-18T05:38:40;10.63;;;5.40;;
62006;SDS011;47963;53.008;6.754;2022-07-18T05:41:06;13.32;;;5.32;;
62006;SDS011;47963;53.008;6.754;2022-07-18T05:43:32;11.50;;;5.28;;
62006;SDS011;47963;53.008;6.754;2022-07-18T05:45:57;10.80;;;5.40;;
62006;SDS011;47963;53.008;6.754;2022-07-18T05:48:23;11.23;;;5.20;;
62006;SDS011;47963;53.008;6.754;2022-07-18T05:50:49;10.55;;;4.90;;
62006;SDS011;47963;53.008;6.754;2022-07-18T05:53:14;11.35;;;4.95;;
62006;SDS011;47963;53.008;6.754;2022-07-18T05:55:40;10.85;;;4.80;;
62006;SDS011;47963;53.008;6.754;2022-07-18T05:58:06;12.90;;;4.80;;
62006;SDS011;47963;53.008;6.754;2022-07-18T06:00:31;11.27;;;4.30;;
62006;SDS011;47963;53.008;6.754;2022-07-18T06:02:57;10.13;;;4.13;;
62006;SDS011;47963;53.008;6.754;2022-07-18T06:05:23;11.38;;;4.53;;
62006;SDS011;47963;53.008;6.754;2022-07-18T06:07:48;9.82;;;4.70;;
62006;SDS011;47963;53.008;6.754;2022-07-18T06:10:14;11.35;;;4.70;;
62006;SDS011;47963;53.008;6.754;2022-07-18T06:12:40;9.43;;;4.40;;
62006;SDS011;47963;53.008;6.754;2022-07-18T06:15:06;10.95;;;4.50;;
62006;SDS011;47963;53.008;6.754;2022-07-18T06:17:32;10.77;;;4.20;;
62006;SDS011;47963;53.008;6.754;2022-07-18T06:19:58;8.98;;;4.38;;
62006;SDS011;47963;53.008;6.754;2022-07-18T06:22:24;9.95;;;3.97;;
62006;SDS011;47963;53.008;6.754;2022-07-18T06:24:50;9.07;;;4.43;;
62006;SDS011;47963;53.008;6.754;2022-07-18T06:27:16;8.52;;;4.43;;
62006;SDS011;47963;53.008;6.754;2022-07-18T06:29:42;9.13;;;3.97;;
62006;SDS011;47963;53.008;6.754;2022-07-18T06:32:08;8.75;;;4.10;;
62006;SDS011;47963;53.008;6.754;2022-07-18T06:34:33;9.93;;;4.38;;
62006;SDS011;47963;53.008;6.754;2022-07-18T06:36:59;9.68;;;4.25;;
62006;SDS011;47963;53.008;6.754;2022-07-18T06:39:25;8.38;;;4.15;;
62006;SDS011;47963;53.008;6.754;2022-07-18T06:41:50;9.80;;;4.28;;
62006;SDS011;47963;53.008;6.754;2022-07-18T06:44:16;9.27;;;4.63;;
62006;SDS011;47963;53.008;6.754;2022-07-18T06:46:42;8.27;;;4.00;;
62006;SDS011;47963;53.008;6.754;2022-07-18T06:49:07;11.40;;;4.22;;
62006;SDS011;47963;53.008;6.754;2022-07-18T06:51:33;11.25;;;4.00;;
62006;SDS011;47963;53.008;6.754;2022-07-18T06:53:59;11.25;;;4.20;;
62006;SDS011;47963;53.008;6.754;2022-07-18T06:56:25;9.70;;;3.85;;
62006;SDS011;47963;53.008;6.754;2022-07-18T06:58:50;10.07;;;3.90;;
62006;SDS011;47963;53.008;6.754;2022-07-18T07:01:18;9.20;;;3.72;;
62006;SDS011;47963;53.008;6.754;2022-07-18T07:03:45;9.80;;;3.90;;
62006;SDS011;47963;53.008;6.754;2022-07-18T07:06:11;9.32;;;3.83;;
62006;SDS011;47963;53.008;6.754;2022-07-18T07:08:37;9.75;;;3.40;;
62006;SDS011;47963;53.008;6.754;2022-07-18T07:11:03;8.55;;;3.58;;
62006;SDS011;47963;53.008;6.754;2022-07-18T07:13:28;9.50;;;3.60;;
62006;SDS011;47963;53.008;6.754;2022-07-18T07:15:54;8.68;;;3.15;;
62006;SDS011;47963;53.008;6.754;2022-07-18T07:18:20;9.70;;;3.65;;
62006;SDS011;47963;53.008;6.754;2022-07-18T07:20:46;7.70;;;3.15;;
62006;SDS011;47963;53.008;6.754;2022-07-18T07:23:11;9.15;;;3.30;;
62006;SDS011;47963;53.008;6.754;2022-07-18T07:25:38;7.47;;;3.15;;
62006;SDS011;47963;53.008;6.754;2022-07-18T07:28:04;10.05;;;3.40;;
62006;SDS011;47963;53.008;6.754;2022-07-18T07:30:31;9.65;;;3.30;;
62006;SDS011;47963;53.008;6.754;2022-07-18T07:32:58;8.27;;;3.10;;
62006;SDS011;47963;53.008;6.754;2022-07-18T07:35:24;9.05;;;3.30;;
62006;SDS011;47963;53.008;6.754;2022-07-18T07:37:57;8.70;;;3.58;;
62006;SDS011;47963;53.008;6.754;2022-07-18T07:40:24;10.07;;;3.05;;
62006;SDS011;47963;53.008;6.754;2022-07-18T07:42:52;9.05;;;3.33;;
62006;SDS011;47963;53.008;6.754;2022-07-18T07:45:28;8.77;;;3.30;;
62006;SDS011;47963;53.008;6.754;2022-07-18T07:47:54;8.30;;;2.80;;
62006;SDS011;47963;53.008;6.754;2022-07-18T07:50:20;9.75;;;3.13;;
62006;SDS011;47963;53.008;6.754;2022-07-18T07:52:45;8.38;;;3.10;;
62006;SDS011;47963;53.008;6.754;2022-07-18T07:55:11;8.20;;;3.20;;
62006;SDS011;47963;53.008;6.754;2022-07-18T07:57:37;7.50;;;3.10;;
62006;SDS011;47963;53.008;6.754;2022-07-18T08:00:06;8.23;;;3.13;;
62006;SDS011;47963;53.008;6.754;2022-07-18T08:02:33;10.75;;;3.00;;
62006;SDS011;47963;53.008;6.754;2022-07-18T08:04:59;7.97;;;2.97;;
62006;SDS011;47963;53.008;6.754;2022-07-18T08:07:24;7.82;;;2.90;;
62006;SDS011;47963;53.008;6.754;2022-07-18T08:09:50;9.25;;;2.78;;
62006;SDS011;47963;53.008;6.754;2022-07-18T08:12:16;7.80;;;2.70;;
62006;SDS011;47963;53.008;6.754;2022-07-18T08:14:42;8.15;;;2.60;;
62006;SDS011;47963;53.008;6.754;2022-07-18T08:17:07;9.15;;;2.80;;
62006;SDS011;47963;53.008;6.754;2022-07-18T08:19:33;7.00;;;2.67;;
62006;SDS011;47963;53.008;6.754;2022-07-18T08:21:59;7.57;;;2.63;;
62006;SDS011;47963;53.008;6.754;2022-07-18T08:24:24;8.07;;;2.90;;
62006;SDS011;47963;53.008;6.754;2022-07-18T08:26:50;11.70;;;3.20;;
62006;SDS011;47963;53.008;6.754;2022-07-18T08:29:16;6.47;;;2.70;;
62006;SDS011;47963;53.008;6.754;2022-07-18T08:31:41;8.88;;;3.05;;
62006;SDS011;47963;53.008;6.754;2022-07-18T08:34:07;8.85;;;2.78;;
62006;SDS011;47963;53.008;6.754;2022-07-18T08:36:33;6.03;;;2.50;;
62006;SDS011;47963;53.008;6.754;2022-07-18T08:38:58;7.15;;;2.50;;
62006;SDS011;47963;53.008;6.754;2022-07-18T08:41:25;6.72;;;2.75;;
62006;SDS011;47963;53.008;6.754;2022-07-18T08:43:52;8.45;;;2.92;;
62006;SDS011;47963;53.008;6.754;2022-07-18T08:46:19;10.85;;;2.90;;
62006;SDS011;47963;53.008;6.754;2022-07-18T08:48:46;8.70;;;2.70;;
62006;SDS011;47963;53.008;6.754;2022-07-18T08:51:17;8.25;;;2.50;;
62006;SDS011;47963;53.008;6.754;2022-07-18T08:53:45;8.27;;;2.58;;
62006;SDS011;47963;53.008;6.754;2022-07-18T08:56:11;9.98;;;2.70;;
62006;SDS011;47963;53.008;6.754;2022-07-18T08:58:37;8.02;;;2.53;;
62006;SDS011;47963;53.008;6.754;2022-07-18T09:01:03;8.50;;;2.15;;
62006;SDS011;47963;53.008;6.754;2022-07-18T09:03:28;8.35;;;2.67;;
62006;SDS011;47963;53.008;6.754;2022-07-18T09:08:34;6.43;;;2.50;;
62006;SDS011;47963;53.008;6.754;2022-07-18T09:11:01;8.25;;;2.40;;
62006;SDS011;47963;53.008;6.754;2022-07-18T09:13:35;7.82;;;2.70;;
62006;SDS011;47963;53.008;6.754;2022-07-18T09:18:32;6.85;;;2.65;;
62006;SDS011;47963;53.008;6.754;2022-07-18T09:21:09;8.85;;;2.63;;
62006;SDS011;47963;53.008;6.754;2022-07-18T09:23:38;7.40;;;2.60;;
62006;SDS011;47963;53.008;6.754;2022-07-18T09:26:06;7.25;;;2.38;;
62006;SDS011;47963;53.008;6.754;2022-07-18T09:28:45;7.53;;;2.50;;
62006;SDS011;47963;53.008;6.754;2022-07-18T09:31:16;8.15;;;2.50;;
62006;SDS011;47963;53.008;6.754;2022-07-18T09:33:51;8.40;;;2.90;;
62006;SDS011;47963;53.008;6.754;2022-07-18T09:36:21;8.52;;;2.60;;
62006;SDS011;47963;53.008;6.754;2022-07-18T09:38:47;7.40;;;2.38;;
62006;SDS011;47963;53.008;6.754;2022-07-18T09:41:12;6.88;;;2.30;;
62006;SDS011;47963;53.008;6.754;2022-07-18T09:43:38;7.68;;;2.30;;
62006;SDS011;47963;53.008;6.754;2022-07-18T09:46:05;7.60;;;2.47;;
62006;SDS011;47963;53.008;6.754;2022-07-18T09:48:31;7.20;;;2.45;;
62006;SDS011;47963;53.008;6.754;2022-07-18T09:51:02;9.43;;;2.90;;
62006;SDS011;47963;53.008;6.754;2022-07-18T09:53:36;8.55;;;2.55;;
62006;SDS011;47963;53.008;6.754;2022-07-18T09:56:04;9.30;;;2.70;;
62006;SDS011;47963;53.008;6.754;2022-07-18T09:58:35;7.77;;;2.70;;
62006;SDS011;47963;53.008;6.754;2022-07-18T10:01:07;7.55;;;2.63;;
62006;SDS011;47963;53.008;6.754;2022-07-18T10:03:34;8.77;;;2.97;;
62006;SDS011;47963;53.008;6.754;2022-07-18T10:06:00;7.45;;;2.60;;
62006;SDS011;47963;53.008;6.754;2022-07-18T10:08:30;11.15;;;2.95;;
62006;SDS011;47963;53.008;6.754;2022-07-18T10:11:01;8.88;;;2.80;;
62006;SDS011;47963;53.008;6.754;2022-07-18T10:13:29;9.73;;;3.25;;
62006;SDS011;47963;53.008;6.754;2022-07-18T10:15:56;8.90;;;3.03;;
62006;SDS011;47963;53.008;6.754;2022-07-18T10:18:23;8.50;;;2.80;;
62006;SDS011;47963;53.008;6.754;2022-07-18T10:20:52;7.97;;;3.00;;
62006;SDS011;47963;53.008;6.754;2022-07-18T10:23:23;7.78;;;2.90;;
62006;SDS011;47963;53.008;6.754;2022-07-18T10:28:36;8.45;;;3.25;;
62006;SDS011;47963;53.008;6.754;2022-07-18T10:31:22;8.27;;;3.08;;
62006;SDS011;47963;53.008;6.754;2022-07-18T10:33:52;7.20;;;3.10;;
62006;SDS011;47963;53.008;6.754;2022-07-18T10:36:19;10.30;;;2.88;;
62006;SDS011;47963;53.008;6.754;2022-07-18T10:57:34;10.10;;;4.03;;
62006;SDS011;47963;53.008;6.754;2022-07-18T11:00:14;8.82;;;4.10;;
62006;SDS011;47963;53.008;6.754;2022-07-18T11:02:42;8.40;;;3.70;;
62006;SDS011;47963;53.008;6.754;2022-07-18T11:18:23;10.50;;;4.50;;
62006;SDS011;47963;53.008;6.754;2022-07-18T11:20:49;9.90;;;4.07;;
62006;SDS011;47963;53.008;6.754;2022-07-18T11:23:18;7.65;;;4.10;;
62006;SDS011;47963;53.008;6.754;2022-07-18T11:25:53;9.88;;;4.40;;
62006;SDS011;47963;53.008;6.754;2022-07-18T11:28:26;9.23;;;4.32;;
62006;SDS011;47963;53.008;6.754;2022-07-18T11:33:29;9.30;;;4.03;;
62006;SDS011;47963;53.008;6.754;2022-07-18T11:38:41;8.95;;;4.10;;
62006;SDS011;47963;53.008;6.754;2022-07-18T11:41:12;8.98;;;3.67;;
62006;SDS011;47963;53.008;6.754;2022-07-18T11:43:38;9.07;;;3.60;;
62006;SDS011;47963;53.008;6.754;2022-07-18T11:46:08;9.10;;;3.70;;
62006;SDS011;47963;53.008;6.754;2022-07-18T11:48:36;8.85;;;3.80;;
62006;SDS011;47963;53.008;6.754;2022-07-18T11:51:08;9.35;;;4.53;;
62006;SDS011;47963;53.008;6.754;2022-07-18T11:53:34;10.10;;;4.55;;
62006;SDS011;47963;53.008;6.754;2022-07-18T11:56:03;10.18;;;4.07;;
62006;SDS011;47963;53.008;6.754;2022-07-18T11:58:34;9.43;;;4.10;;
62006;SDS011;47963;53.008;6.754;2022-07-18T12:01:03;9.15;;;3.90;;
62006;SDS011;47963;53.008;6.754;2022-07-18T12:03:30;8.30;;;4.03;;
62006;SDS011;47963;53.008;6.754;2022-07-18T12:05:56;10.90;;;4.07;;
62006;SDS011;47963;53.008;6.754;2022-07-18T12:08:32;9.65;;;3.70;;
62006;SDS011;47963;53.008;6.754;2022-07-18T12:11:07;9.38;;;4.40;;
62006;SDS011;47963;53.008;6.754;2022-07-18T12:19:09;9.00;;;4.20;;
62006;SDS011;47963;53.008;6.754;2022-07-18T12:21:47;7.95;;;3.90;;
62006;SDS011;47963;53.008;6.754;2022-07-18T12:32:52;8.23;;;4.20;;
62006;SDS011;47963;53.008;6.754;2022-07-18T12:35:24;9.75;;;4.03;;
62006;SDS011;47963;53.008;6.754;2022-07-18T12:38:06;8.20;;;3.92;;
62006;SDS011;47963;53.008;6.754;2022-07-18T12:43:25;8.70;;;4.25;;
62006;SDS011;47963;53.008;6.754;2022-07-18T12:45:54;7.85;;;4.00;;
62006;SDS011;47963;53.008;6.754;2022-07-18T12:48:21;9.02;;;3.75;;
62006;SDS011;47963;53.008;6.754;2022-07-18T12:51:00;8.77;;;4.40;;
62006;SDS011;47963;53.008;6.754;2022-07-18T12:53:34;7.38;;;3.60;;
62006;SDS011;47963;53.008;6.754;2022-07-18T12:56:01;9.05;;;3.63;;
62006;SDS011;47963;53.008;6.754;2022-07-18T12:58:28;8.82;;;4.05;;
62006;SDS011;47963;53.008;6.754;2022-07-18T13:00:53;8.82;;;3.92;;
62006;SDS011;47963;53.008;6.754;2022-07-18T13:03:21;8.45;;;4.10;;
62006;SDS011;47963;53.008;6.754;2022-07-18T13:05:47;8.05;;;3.63;;
62006;SDS011;47963;53.008;6.754;2022-07-18T13:08:13;9.35;;;3.90;;
62006;SDS011;47963;53.008;6.754;2022-07-18T13:10:39;8.75;;;4.10;;
62006;SDS011;47963;53.008;6.754;2022-07-18T13:13:05;7.82;;;3.92;;
62006;SDS011;47963;53.008;6.754;2022-07-18T13:15:33;8.18;;;4.05;;
62006;SDS011;47963;53.008;6.754;2022-07-18T13:17:59;8.88;;;4.10;;
62006;SDS011;47963;53.008;6.754;2022-07-18T13:20:25;7.97;;;4.28;;
62006;SDS011;47963;53.008;6.754;2022-07-18T13:22:51;7.85;;;4.00;;
62006;SDS011;47963;53.008;6.754;2022-07-18T13:25:18;8.65;;;4.07;;
62006;SDS011;47963;53.008;6.754;2022-07-18T13:27:45;9.27;;;4.25;;
62006;SDS011;47963;53.008;6.754;2022-07-18T13:30:11;7.60;;;4.07;;
62006;SDS011;47963;53.008;6.754;2022-07-18T13:32:36;8.23;;;3.80;;
62006;SDS011;47963;53.008;6.754;2022-07-18T13:35:03;8.00;;;4.10;;
62006;SDS011;47963;53.008;6.754;2022-07-18T13:37:29;8.35;;;4.28;;
62006;SDS011;47963;53.008;6.754;2022-07-18T13:39:54;7.70;;;3.95;;
62006;SDS011;47963;53.008;6.754;2022-07-18T13:42:20;8.57;;;4.50;;
62006;SDS011;47963;53.008;6.754;2022-07-18T13:44:46;8.00;;;4.25;;
62006;SDS011;47963;53.008;6.754;2022-07-18T13:47:12;8.52;;;4.38;;
62006;SDS011;47963;53.008;6.754;2022-07-18T13:49:38;8.52;;;4.22;;
62006;SDS011;47963;53.008;6.754;2022-07-18T13:52:04;9.10;;;4.00;;
62006;SDS011;47963;53.008;6.754;2022-07-18T13:54:30;9.75;;;4.10;;
62006;SDS011;47963;53.008;6.754;2022-07-18T13:56:56;7.78;;;4.15;;
62006;SDS011;47963;53.008;6.754;2022-07-18T13:59:22;8.55;;;3.72;;
62006;SDS011;47963;53.008;6.754;2022-07-18T14:01:48;10.13;;;4.63;;
62006;SDS011;47963;53.008;6.754;2022-07-18T14:04:14;7.15;;;4.28;;
62006;SDS011;47963;53.008;6.754;2022-07-18T14:06:41;9.60;;;4.32;;
62006;SDS011;47963;53.008;6.754;2022-07-18T14:09:06;8.40;;;3.90;;
62006;SDS011;47963;53.008;6.754;2022-07-18T14:11:32;8.50;;;4.35;;
62006;SDS011;47963;53.008;6.754;2022-07-18T14:13:59;9.07;;;4.20;;
62006;SDS011;47963;53.008;6.754;2022-07-18T14:16:26;8.35;;;4.40;;
62006;SDS011;47963;53.008;6.754;2022-07-18T14:18:51;9.10;;;3.83;;
62006;SDS011;47963;53.008;6.754;2022-07-18T14:21:18;9.13;;;3.60;;
62006;SDS011;47963;53.008;6.754;2022-07-18T14:23:44;7.93;;;4.10;;
62006;SDS011;47963;53.008;6.754;2022-07-18T14:26:10;8.90;;;4.50;;
62006;SDS011;47963;53.008;6.754;2022-07-18T14:28:35;9.85;;;4.30;;
62006;SDS011;47963;53.008;6.754;2022-07-18T14:31:01;8.57;;;4.22;;
62006;SDS011;47963;53.008;6.754;2022-07-18T14:33:27;8.88;;;3.92;;
62006;SDS011;47963;53.008;6.754;2022-07-18T14:35:52;9.75;;;4.47;;
62006;SDS011;47963;53.008;6.754;2022-07-18T14:38:18;8.10;;;4.32;;
62006;SDS011;47963;53.008;6.754;2022-07-18T14:40:44;8.93;;;4.28;;
62006;SDS011;47963;53.008;6.754;2022-07-18T14:43:09;8.65;;;4.35;;
62006;SDS011;47963;53.008;6.754;2022-07-18T14:45:35;7.70;;;3.90;;
62006;SDS011;47963;53.008;6.754;2022-07-18T14:48:01;8.68;;;4.18;;
62006;SDS011;47963;53.008;6.754;2022-07-18T14:50:26;12.23;;;4.40;;
62006;SDS011;47963;53.008;6.754;2022-07-18T14:52:52;9.82;;;4.10;;
62006;SDS011;47963;53.008;6.754;2022-07-18T14:55:18;8.77;;;4.25;;
62006;SDS011;47963;53.008;6.754;2022-07-18T14:57:43;6.95;;;3.60;;
62006;SDS011;47963;53.008;6.754;2022-07-18T15:00:09;8.73;;;4.28;;
62006;SDS011;47963;53.008;6.754;2022-07-18T15:02:36;8.10;;;4.40;;
62006;SDS011;47963;53.008;6.754;2022-07-18T15:05:03;7.53;;;4.18;;
62006;SDS011;47963;53.008;6.754;2022-07-18T15:07:30;8.60;;;4.15;;
62006;SDS011;47963;53.008;6.754;2022-07-18T15:09:55;8.98;;;4.10;;
62006;SDS011;47963;53.008;6.754;2022-07-18T15:12:21;7.93;;;4.30;;
62006;SDS011;47963;53.008;6.754;2022-07-18T15:14:49;9.13;;;3.85;;
62006;SDS011;47963;53.008;6.754;2022-07-18T15:17:14;8.10;;;4.20;;
62006;SDS011;47963;53.008;6.754;2022-07-18T15:19:40;9.30;;;4.07;;
62006;SDS011;47963;53.008;6.754;2022-07-18T15:22:06;8.85;;;3.70;;
62006;SDS011;47963;53.008;6.754;2022-07-18T15:24:32;7.82;;;3.85;;
62006;SDS011;47963;53.008;6.754;2022-07-18T15:26:59;8.77;;;4.03;;
62006;SDS011;47963;53.008;6.754;2022-07-18T15:29:25;8.85;;;4.20;;
62006;SDS011;47963;53.008;6.754;2022-07-18T15:31:51;7.45;;;3.60;;
62006;SDS011;47963;53.008;6.754;2022-07-18T15:34:17;8.38;;;3.42;;
62006;SDS011;47963;53.008;6.754;2022-07-18T15:36:43;7.13;;;3.55;;
62006;SDS011;47963;53.008;6.754;2022-07-18T15:39:08;6.07;;;2.88;;
62006;SDS011;47963;53.008;6.754;2022-07-18T15:41:34;6.72;;;3.30;;